Terminal Aerodrome Forecast
Issued by NWS

Home | Current Version | Previous Version | Text Only | Print | Product List | Glossary On
Versions: 1 2 3 4 5 6 7 8 9 10 11 12 13 14 15 16 17 18 19 20 21 22 23 24 25 26
000
FTUS45 KBOU 221905 AAA
TAFBJC
TAF AMD
KBJC 221905Z 2219/2318 36004KT P6SM SCT015 SCT060 BKN080
      TEMPO 2219/2222 4SM -SN BR BKN010
     FM222200 08004KT P6SM VCSH SCT025 OVC050
      TEMPO 2222/2301 3SM -SN OVC025
     FM230100 VRB04KT P6SM VCSH SCT015 OVC035
      TEMPO 2301/2305 2SM -SN OVC015
     FM230500 29004KT P6SM VCFG BKN020
     FM231500 VRB04KT P6SM FEW015 SCT030
     FM231700 09005KT P6SM VCSH FEW030 SCT220=

USA.gov is the U.S. government's official web portal to all federal, state and local government web resources and services.